createdAt,value
2019-01-22T00:05:00.248Z,36.03
2019-01-22T00:10:09.064Z,32.33
2019-01-22T00:15:15.790Z,32.70
2019-01-22T00:20:22.283Z,37.03
2019-01-22T00:25:28.414Z,31.60
2019-01-22T00:30:34.853Z,32.57
2019-01-22T00:35:40.942Z,35.27
2019-01-22T00:40:48.402Z,37.33
2019-01-22T00:45:54.481Z,35.40
2019-01-22T00:51:00.948Z,31.93
2019-01-22T00:56:07.133Z,33.67
2019-01-22T01:01:13.404Z,35.20
2019-01-22T01:06:19.563Z,32.53
2019-01-22T01:11:25.668Z,33.17
2019-01-22T01:16:31.762Z,35.90
2019-01-22T01:21:37.924Z,30.90
2019-01-22T01:26:43.990Z,31.27
2019-01-22T01:31:50.093Z,34.17
2019-01-22T01:36:56.117Z,33.53
2019-01-22T01:42:02.294Z,34.07
2019-01-22T01:47:08.468Z,32.80
2019-01-22T01:52:14.584Z,35.30
2019-01-22T01:57:20.644Z,31.43
2019-01-22T02:02:26.821Z,33.77
2019-01-22T02:07:32.986Z,36.90
2019-01-22T02:13:03.156Z,31.47
2019-01-22T02:18:29.504Z,30.00
2019-01-22T02:24:34.121Z,34.47
2019-01-22T02:30:11.964Z,34.30
2019-01-22T02:35:45.489Z,33.87
2019-01-22T02:41:25.575Z,35.37
2019-01-22T02:47:11.875Z,31.57
2019-01-22T02:53:06.893Z,31.27
2019-01-22T02:58:41.559Z,37.17
2019-01-22T03:04:28.491Z,32.83
2019-01-22T03:10:15.528Z,35.40
2019-01-22T03:16:10.550Z,36.27
2019-01-22T03:21:47.526Z,33.73
2019-01-22T03:27:36.118Z,33.17
2019-01-22T03:33:09.926Z,39.03
2019-01-22T03:38:58.210Z,37.33
2019-01-22T03:44:54.560Z,37.03
2019-01-22T03:50:23.352Z,37.43
2019-01-22T03:55:58.626Z,36.80
2019-01-22T04:01:17.484Z,33.87
2019-01-22T04:06:26.742Z,42.83
2019-01-22T04:11:39.867Z,35.90
2019-01-22T04:16:45.943Z,39.27
2019-01-22T04:21:52.092Z,33.70
2019-01-22T04:27:15.487Z,32.67
2019-01-22T04:32:37.238Z,36.63
2019-01-22T04:38:14.621Z,37.67
2019-01-22T04:43:54.414Z,40.47
2019-01-22T04:49:44.448Z,40.00
2019-01-22T04:55:24.793Z,38.30
2019-01-22T05:01:15.413Z,44.13
2019-01-22T05:06:45.223Z,45.73
2019-01-22T05:12:34.748Z,42.37
2019-01-22T05:18:24.360Z,46.20
2019-01-22T05:23:53.422Z,45.37
2019-01-22T05:29:46.038Z,49.97
2019-01-22T05:35:15.559Z,45.37
2019-01-22T05:41:10.461Z,54.63
2019-01-22T05:47:03.835Z,49.37
2019-01-22T05:52:38.789Z,45.87
2019-01-22T05:58:20.707Z,43.60
2019-01-22T06:04:16.484Z,44.80
2019-01-22T06:09:34.711Z,45.50
2019-01-22T06:15:09.269Z,47.30
2019-01-22T06:20:31.682Z,48.13
2019-01-22T06:26:02.224Z,51.20
2019-01-22T06:31:40.181Z,55.77
2019-01-22T06:37:18.413Z,59.27
2019-01-22T06:42:45.029Z,53.00
2019-01-22T06:48:14.990Z,57.17
2019-01-22T06:53:40.528Z,59.37
2019-01-22T06:59:43.051Z,53.23
2019-01-22T07:05:00.753Z,60.73
2019-01-22T07:10:40.967Z,71.60
2019-01-22T07:16:33.647Z,68.30
2019-01-22T07:22:29.362Z,78.57
2019-01-22T07:28:12.727Z,75.63
2019-01-22T07:33:52.767Z,75.33
2019-01-22T07:39:13.554Z,75.93
2019-01-22T07:44:57.785Z,82.03
2019-01-22T07:50:53.424Z,69.97
2019-01-22T07:56:33.597Z,77.83
2019-01-22T08:02:32.075Z,77.23
2019-01-22T08:08:34.187Z,68.70
2019-01-22T08:14:08.382Z,59.00
2019-01-22T08:19:39.279Z,52.97
2019-01-22T08:25:32.561Z,56.97
2019-01-22T08:31:18.056Z,54.27
2019-01-22T08:37:04.032Z,67.27
2019-01-22T08:42:52.075Z,60.53
2019-01-22T08:48:50.831Z,61.63
2019-01-22T08:54:32.033Z,81.17
2019-01-22T09:00:16.669Z,82.87
2019-01-22T09:05:34.717Z,74.20
2019-01-22T09:11:20.269Z,80.10
2019-01-22T09:16:50.500Z,71.03
2019-01-22T09:22:42.029Z,81.93
2019-01-22T09:28:15.465Z,74.40
2019-01-22T09:33:49.707Z,70.53
2019-01-22T09:38:55.751Z,60.70
2019-01-22T09:44:01.991Z,56.10
2019-01-22T09:49:08.082Z,60.27
2019-01-22T09:54:14.163Z,65.43
2019-01-22T09:59:21.286Z,71.80
2019-01-22T10:04:27.490Z,65.83
2019-01-22T10:09:33.714Z,60.30
2019-01-22T10:14:39.927Z,67.73
2019-01-22T10:19:46.008Z,69.67
2019-01-22T10:24:52.055Z,60.53
2019-01-22T10:29:58.049Z,62.83
2019-01-22T10:35:04.381Z,58.83
2019-01-22T10:40:11.816Z,56.40
2019-01-22T10:45:18.652Z,60.47
2019-01-22T10:50:24.879Z,63.57
2019-01-22T10:55:36.229Z,55.47
2019-01-22T11:00:38.872Z,56.80
2019-01-22T11:05:45.073Z,58.03
2019-01-22T11:10:52.088Z,56.83
2019-01-22T11:15:58.242Z,57.00
2019-01-22T11:21:04.305Z,56.57
2019-01-22T11:26:10.301Z,52.27
2019-01-22T11:31:16.610Z,55.10
2019-01-22T11:36:23.245Z,52.03
2019-01-22T11:41:29.314Z,50.27
2019-01-22T11:46:35.486Z,52.07
2019-01-22T11:51:41.572Z,52.03
2019-01-22T11:56:47.623Z,50.43
2019-01-22T12:01:53.724Z,55.07
2019-01-22T12:06:59.907Z,51.63
2019-01-22T12:12:06.272Z,52.13
2019-01-22T12:17:12.387Z,51.77
2019-01-22T12:22:18.514Z,52.13
2019-01-22T12:27:24.725Z,52.73
2019-01-22T12:32:30.800Z,51.93
2019-01-22T12:37:36.891Z,55.53
2019-01-22T12:42:43.132Z,53.60
2019-01-22T12:47:49.314Z,51.63
2019-01-22T12:52:55.370Z,51.33
2019-01-22T12:58:01.479Z,55.33
2019-01-22T13:03:07.937Z,52.43
2019-01-22T13:08:14.008Z,56.83
2019-01-22T13:13:20.081Z,59.40
2019-01-22T13:18:26.298Z,59.20
2019-01-22T13:23:32.463Z,59.87
2019-01-22T13:28:38.518Z,55.37
2019-01-22T13:33:44.807Z,63.13
2019-01-22T13:38:50.975Z,60.87
2019-01-22T13:43:57.076Z,63.00
2019-01-22T13:49:03.166Z,63.03
2019-01-22T13:54:09.417Z,59.63
2019-01-22T13:59:15.505Z,58.73
2019-01-22T14:04:21.584Z,66.23
2019-01-22T14:09:27.718Z,63.93
2019-01-22T14:14:33.932Z,65.00
2019-01-22T14:19:40.009Z,64.43
2019-01-22T14:24:46.206Z,69.43
2019-01-22T14:29:52.345Z,63.20
2019-01-22T14:34:58.525Z,67.73
2019-01-22T14:40:05.281Z,67.70
2019-01-22T14:45:13.461Z,66.37
2019-01-22T14:50:21.495Z,64.23
2019-01-22T14:55:27.628Z,56.23
2019-01-22T15:00:33.809Z,63.17
2019-01-22T15:05:39.967Z,59.30
2019-01-22T15:10:46.152Z,60.43
2019-01-22T15:15:52.266Z,61.03
2019-01-22T15:20:58.452Z,64.73
2019-01-22T15:26:04.575Z,59.37
2019-01-22T15:31:10.667Z,62.77
2019-01-22T15:36:16.731Z,57.10
2019-01-22T15:41:22.821Z,58.67
2019-01-22T15:46:28.992Z,61.07
2019-01-22T15:51:35.064Z,62.27
2019-01-22T15:56:46.414Z,61.20
2019-01-22T16:01:48.912Z,60.70
2019-01-22T16:06:55.976Z,58.67
2019-01-22T16:12:02.218Z,65.13
2019-01-22T16:17:08.396Z,64.20
2019-01-22T16:22:14.522Z,65.77
2019-01-22T16:27:20.802Z,65.67
2019-01-22T16:32:26.925Z,68.50
2019-01-22T16:37:33.107Z,66.97
2019-01-22T16:42:39.174Z,67.93
2019-01-22T16:47:45.379Z,94.47
2019-01-22T16:52:51.600Z,202.17
2019-01-22T16:57:57.826Z,236.50
2019-01-22T17:03:04.333Z,164.20
2019-01-22T17:08:10.429Z,135.57
2019-01-22T17:13:16.573Z,111.30
2019-01-22T17:18:22.759Z,120.67
2019-01-22T17:23:28.806Z,90.87
2019-01-22T17:28:35.078Z,69.73
2019-01-22T17:33:45.684Z,68.57
2019-01-22T17:38:51.757Z,74.47
2019-01-22T17:43:57.960Z,73.23
2019-01-22T17:49:04.295Z,80.03
2019-01-22T17:54:10.438Z,84.53
2019-01-22T17:59:16.584Z,74.57
2019-01-22T18:04:22.656Z,62.43
2019-01-22T18:09:28.794Z,65.83
2019-01-22T18:14:34.923Z,68.90
2019-01-22T18:19:40.979Z,64.10
2019-01-22T18:24:47.174Z,60.73
2019-01-22T18:29:53.310Z,75.17
2019-01-22T18:34:59.469Z,68.93
2019-01-22T18:40:07.293Z,63.57
2019-01-22T18:45:15.171Z,65.80
2019-01-22T18:50:22.764Z,64.47
2019-01-22T18:55:28.891Z,65.80
2019-01-22T19:00:34.994Z,62.87
2019-01-22T19:05:41.081Z,67.30
2019-01-22T19:10:47.144Z,63.87
2019-01-22T19:15:53.331Z,60.60
2019-01-22T19:20:59.474Z,61.00
2019-01-22T19:26:05.678Z,66.07
2019-01-22T19:31:11.878Z,58.83
2019-01-22T19:36:18.011Z,64.77
2019-01-22T19:41:24.209Z,62.17
2019-01-22T19:46:30.293Z,61.80
2019-01-22T19:51:36.481Z,59.17
2019-01-22T19:56:42.612Z,64.13
2019-01-22T20:01:48.799Z,58.23
2019-01-22T20:06:54.899Z,58.70
2019-01-22T20:12:00.981Z,65.67
2019-01-22T20:17:07.108Z,59.70
2019-01-22T20:22:13.299Z,68.37
2019-01-22T20:27:19.396Z,64.00
2019-01-22T20:32:25.483Z,65.90
2019-01-22T20:37:31.722Z,69.70
2019-01-22T20:42:37.907Z,65.27
2019-01-22T20:47:43.965Z,95.43
2019-01-22T20:52:50.110Z,65.23
2019-01-22T20:57:57.155Z,71.53
2019-01-22T21:03:03.331Z,68.87
2019-01-22T21:08:09.496Z,68.77
2019-01-22T21:13:15.638Z,71.70
2019-01-22T21:18:21.835Z,68.33
2019-01-22T21:23:28.095Z,75.30
2019-01-22T21:28:34.237Z,69.60
2019-01-22T21:33:40.438Z,73.33
2019-01-22T21:38:46.530Z,77.80
2019-01-22T21:43:52.699Z,79.07
2019-01-22T21:48:59.340Z,72.33
2019-01-22T21:54:05.650Z,66.93
2019-01-22T21:59:11.830Z,69.87
2019-01-22T22:04:17.930Z,65.40
2019-01-22T22:09:23.978Z,62.73
2019-01-22T22:14:31.083Z,63.23
2019-01-22T22:19:37.138Z,109.83
2019-01-22T22:24:43.309Z,89.10
2019-01-22T22:29:49.513Z,86.40
2019-01-22T22:34:55.673Z,144.30
2019-01-22T22:40:01.761Z,84.07
2019-01-22T22:45:08.762Z,70.27
2019-01-22T22:50:18.427Z,67.13
2019-01-22T22:55:24.601Z,85.53
2019-01-22T23:00:43.356Z,72.20
2019-01-22T23:05:51.244Z,67.87
2019-01-22T23:10:57.345Z,62.73
2019-01-22T23:16:03.471Z,57.30
2019-01-22T23:21:09.807Z,68.23
2019-01-22T23:26:15.967Z,60.17
2019-01-22T23:31:22.131Z,57.33
2019-01-22T23:36:28.244Z,58.53
2019-01-22T23:41:34.388Z,57.47
2019-01-22T23:46:40.584Z,58.57
2019-01-22T23:51:46.765Z,55.47
2019-01-22T23:56:52.872Z,52.13
